createdAt,value
2023-05-21T00:01:08.166Z,16.72
2023-05-21T00:03:36.455Z,16.37
2023-05-21T00:06:04.021Z,15.85
2023-05-21T00:08:31.192Z,16.33
2023-05-21T00:10:58.038Z,16.20
2023-05-21T00:13:24.791Z,16.44
2023-05-21T00:15:51.593Z,16.52
2023-05-21T00:18:18.468Z,16.68
2023-05-21T00:20:45.851Z,16.52
2023-05-21T00:23:12.583Z,16.83
2023-05-21T00:25:39.320Z,16.98
2023-05-21T00:28:06.004Z,17.21
2023-05-21T00:30:32.754Z,16.91
2023-05-21T00:33:02.505Z,16.72
2023-05-21T00:35:29.559Z,16.26
2023-05-21T00:37:56.462Z,15.77
2023-05-21T00:40:23.283Z,15.57
2023-05-21T00:42:50.000Z,16.00
2023-05-21T00:45:16.764Z,15.81
2023-05-21T00:47:44.071Z,16.27
2023-05-21T00:50:12.135Z,16.37
2023-05-21T00:52:42.034Z,16.53
2023-05-21T00:55:09.878Z,16.81
2023-05-21T00:57:37.408Z,16.90
2023-05-21T01:00:08.168Z,16.93
2023-05-21T01:02:38.416Z,16.70
2023-05-21T01:05:06.195Z,16.88
2023-05-21T01:07:39.923Z,16.83
2023-05-21T01:10:08.621Z,17.02
2023-05-21T01:12:36.334Z,17.01
2023-05-21T01:15:04.198Z,16.62
2023-05-21T01:17:31.894Z,16.46
2023-05-21T01:19:59.509Z,16.51
2023-05-21T01:22:28.591Z,16.49
2023-05-21T01:24:55.682Z,16.25
2023-05-21T01:27:22.953Z,16.49
2023-05-21T01:29:49.739Z,16.47
2023-05-21T01:32:38.636Z,16.35
2023-05-21T01:35:11.410Z,16.19
2023-05-21T01:38:02.365Z,16.01
2023-05-21T01:40:47.491Z,15.81
2023-05-21T01:43:15.493Z,16.44
2023-05-21T01:45:44.144Z,16.41
2023-05-21T01:48:12.977Z,16.35
2023-05-21T01:50:41.712Z,16.30
2023-05-21T01:53:08.431Z,16.50
2023-05-21T01:55:36.144Z,16.62
2023-05-21T01:58:03.155Z,16.73
2023-05-21T02:00:30.917Z,16.58
2023-05-21T02:02:58.838Z,16.92
2023-05-21T02:05:25.880Z,16.82
2023-05-21T02:07:52.862Z,16.96
2023-05-21T02:10:19.660Z,17.00
2023-05-21T02:12:46.564Z,16.77
2023-05-21T02:15:18.187Z,16.73
2023-05-21T02:17:46.403Z,16.52
2023-05-21T02:20:13.921Z,16.68
2023-05-21T02:22:45.972Z,16.18
2023-05-21T02:25:15.945Z,15.84
2023-05-21T02:27:43.390Z,15.78
2023-05-21T02:30:12.229Z,16.23
2023-05-21T02:32:42.655Z,16.52
2023-05-21T02:35:11.467Z,16.46
2023-05-21T02:37:40.344Z,15.61
2023-05-21T02:40:08.182Z,15.66
2023-05-21T02:42:36.641Z,15.53
2023-05-21T02:45:03.747Z,15.08
2023-05-21T02:47:30.473Z,15.03
2023-05-21T02:49:59.916Z,15.51
2023-05-21T02:52:26.735Z,15.69
2023-05-21T02:54:53.719Z,15.71
2023-05-21T02:57:20.598Z,15.41
2023-05-21T02:59:47.298Z,14.88
2023-05-21T03:02:13.951Z,14.89
2023-05-21T03:04:46.138Z,15.18
2023-05-21T03:07:14.526Z,15.54
2023-05-21T03:09:42.427Z,15.73
2023-05-21T03:12:11.080Z,15.75
2023-05-21T03:14:38.347Z,15.89
2023-05-21T03:17:06.367Z,15.72
2023-05-21T03:19:36.817Z,15.80
2023-05-21T03:22:04.718Z,15.70
2023-05-21T03:24:31.855Z,16.05
2023-05-21T03:27:03.349Z,15.86
2023-05-21T03:29:30.081Z,15.61
2023-05-21T03:31:57.765Z,15.64
2023-05-21T03:34:24.602Z,15.68
2023-05-21T03:36:51.410Z,15.46
2023-05-21T03:39:18.182Z,15.50
2023-05-21T03:41:45.185Z,15.68
2023-05-21T03:44:12.029Z,15.73
2023-05-21T03:46:38.834Z,15.63
2023-05-21T03:49:06.002Z,15.59
2023-05-21T03:51:32.651Z,16.08
2023-05-21T03:53:59.940Z,16.14
2023-05-21T03:56:27.001Z,16.20
2023-05-21T03:58:53.851Z,16.18
2023-05-21T04:01:20.639Z,15.93
2023-05-21T04:03:47.590Z,15.71
2023-05-21T04:06:15.629Z,15.87
2023-05-21T04:08:42.744Z,16.13
2023-05-21T04:11:09.533Z,16.42
2023-05-21T04:13:36.366Z,16.30
2023-05-21T04:16:03.150Z,16.52
2023-05-21T04:18:29.934Z,16.40
2023-05-21T04:20:56.728Z,16.00
2023-05-21T04:23:23.747Z,16.46
2023-05-21T04:25:51.151Z,16.47
2023-05-21T04:28:21.181Z,15.97
2023-05-21T04:30:48.407Z,15.64
2023-05-21T04:33:18.427Z,15.96
2023-05-21T04:35:50.244Z,16.00
2023-05-21T04:38:19.616Z,15.99
2023-05-21T04:40:50.787Z,15.80
2023-05-21T04:43:17.494Z,15.89
2023-05-21T04:45:45.222Z,16.34
2023-05-21T04:48:12.729Z,16.51
2023-05-21T04:50:41.700Z,16.41
2023-05-21T04:53:08.858Z,16.51
2023-05-21T04:55:40.037Z,16.50
2023-05-21T04:58:11.278Z,16.67
2023-05-21T05:00:42.309Z,16.96
2023-05-21T05:03:09.223Z,16.33
2023-05-21T05:05:36.317Z,16.16
2023-05-21T05:08:04.155Z,16.60
2023-05-21T05:10:30.839Z,16.95
2023-05-21T05:12:57.543Z,16.27
2023-05-21T05:15:24.204Z,16.05
2023-05-21T05:17:50.969Z,16.56
2023-05-21T05:20:17.869Z,16.52
2023-05-21T05:22:44.484Z,16.60
2023-05-21T05:25:11.162Z,16.80
2023-05-21T05:27:38.613Z,16.72
2023-05-21T05:30:06.150Z,16.56
2023-05-21T05:32:32.840Z,16.95
2023-05-21T05:35:01.611Z,17.27
2023-05-21T05:37:29.141Z,17.35
2023-05-21T05:39:58.160Z,17.64
2023-05-21T05:42:24.947Z,17.32
2023-05-21T05:44:51.584Z,17.40
2023-05-21T05:47:18.244Z,16.97
2023-05-21T05:49:45.793Z,17.20
2023-05-21T05:52:12.705Z,17.16
2023-05-21T05:54:39.379Z,17.00
2023-05-21T05:57:06.342Z,17.64
2023-05-21T05:59:33.954Z,17.15
2023-05-21T06:02:01.852Z,17.46
2023-05-21T06:04:30.285Z,17.88
2023-05-21T06:07:00.983Z,17.43
2023-05-21T06:09:27.655Z,17.38
2023-05-21T06:11:54.411Z,17.20
2023-05-21T06:14:21.123Z,17.51
2023-05-21T06:16:47.855Z,17.73
2023-05-21T06:19:14.720Z,17.22
2023-05-21T06:21:41.429Z,17.43
2023-05-21T06:24:08.106Z,17.95
2023-05-21T06:26:34.748Z,17.95
2023-05-21T06:29:01.443Z,18.52
2023-05-21T06:31:28.830Z,18.25
2023-05-21T06:33:55.656Z,18.77
2023-05-21T06:36:22.400Z,19.50
2023-05-21T06:38:49.186Z,19.36
2023-05-21T06:41:15.952Z,18.92
2023-05-21T06:43:42.618Z,19.08
2023-05-21T06:46:09.450Z,19.34
2023-05-21T06:48:36.203Z,19.68
2023-05-21T06:51:02.879Z,19.20
2023-05-21T06:53:29.653Z,19.32
2023-05-21T06:55:56.295Z,18.97
2023-05-21T06:58:23.081Z,18.52
2023-05-21T07:00:49.859Z,18.96
2023-05-21T07:03:17.344Z,18.78
2023-05-21T07:05:44.246Z,19.33
2023-05-21T07:08:12.187Z,19.37
2023-05-21T07:10:39.016Z,19.01
2023-05-21T07:13:06.063Z,18.97
2023-05-21T07:15:32.706Z,19.76
2023-05-21T07:17:59.423Z,19.75
2023-05-21T07:20:26.155Z,20.23
2023-05-21T07:22:52.839Z,20.54
2023-05-21T07:25:19.654Z,18.86
2023-05-21T07:27:46.512Z,19.06
2023-05-21T07:30:14.713Z,19.32
2023-05-21T07:32:41.553Z,19.94
2023-05-21T07:35:08.594Z,20.69
2023-05-21T07:37:35.341Z,21.20
2023-05-21T07:40:02.260Z,21.01
2023-05-21T07:42:28.896Z,21.17
2023-05-21T07:44:55.565Z,21.24
2023-05-21T07:47:23.555Z,21.00
2023-05-21T07:49:50.337Z,21.06
2023-05-21T07:52:17.095Z,20.40
2023-05-21T07:54:43.858Z,20.54
2023-05-21T07:57:10.552Z,20.66
2023-05-21T07:59:37.272Z,21.14
2023-05-21T08:02:03.972Z,20.57
2023-05-21T08:04:30.944Z,20.54
2023-05-21T08:06:57.715Z,20.80
2023-05-21T08:09:24.399Z,20.93
2023-05-21T08:11:51.095Z,21.15
2023-05-21T08:14:17.873Z,21.54
2023-05-21T08:16:45.241Z,21.70
2023-05-21T08:19:11.978Z,21.68
2023-05-21T08:21:38.657Z,21.77
2023-05-21T08:24:07.266Z,21.82
2023-05-21T08:26:33.950Z,21.58
2023-05-21T08:29:03.334Z,21.11
2023-05-21T08:31:30.983Z,21.17
2023-05-21T08:33:57.774Z,21.52
2023-05-21T08:36:25.107Z,21.30
2023-05-21T08:38:52.978Z,21.12
2023-05-21T08:41:23.134Z,20.87
2023-05-21T08:43:56.631Z,20.99
2023-05-21T08:46:25.103Z,20.97
2023-05-21T08:48:55.145Z,21.83
2023-05-21T08:51:22.416Z,21.93
2023-05-21T08:53:51.512Z,22.11
2023-05-21T08:56:18.484Z,21.07
2023-05-21T08:58:49.078Z,21.57
2023-05-21T09:01:19.261Z,21.52
2023-05-21T09:03:47.220Z,22.40
2023-05-21T09:06:14.291Z,22.35
2023-05-21T09:08:45.998Z,21.34
2023-05-21T09:11:14.096Z,22.00
2023-05-21T09:13:41.773Z,21.54
2023-05-21T09:16:10.219Z,21.12
2023-05-21T09:18:36.877Z,21.75
2023-05-21T09:21:29.932Z,21.83
2023-05-21T09:23:58.068Z,21.95
2023-05-21T09:26:25.856Z,21.60
2023-05-21T09:28:57.662Z,21.24
2023-05-21T09:31:25.924Z,21.88
2023-05-21T09:33:53.379Z,22.22
2023-05-21T09:36:20.457Z,21.36
2023-05-21T09:38:52.166Z,21.28
2023-05-21T09:41:21.903Z,21.45
2023-05-21T09:43:49.310Z,21.40
2023-05-21T09:46:16.162Z,20.71
2023-05-21T09:48:43.484Z,21.17
2023-05-21T09:51:16.176Z,21.46
2023-05-21T09:53:54.354Z,21.95
2023-05-21T09:56:25.259Z,22.14
2023-05-21T09:58:56.883Z,21.91
2023-05-21T10:01:27.379Z,22.03
2023-05-21T10:03:58.973Z,22.05
2023-05-21T10:06:31.184Z,21.16
2023-05-21T10:09:10.731Z,21.77
2023-05-21T10:11:37.969Z,21.26
2023-05-21T10:14:04.825Z,21.91
2023-05-21T10:16:34.184Z,21.50
2023-05-21T10:19:01.022Z,21.56
2023-05-21T10:21:28.114Z,21.33
2023-05-21T10:23:57.450Z,21.52
2023-05-21T10:26:25.105Z,22.37
2023-05-21T10:28:52.252Z,22.35
2023-05-21T10:31:19.960Z,21.67
2023-05-21T10:33:47.305Z,22.23
2023-05-21T10:36:17.378Z,22.20
2023-05-21T10:38:44.797Z,23.29
2023-05-21T10:41:13.750Z,23.64
2023-05-21T10:44:05.335Z,22.65
2023-05-21T10:46:58.385Z,23.30
2023-05-21T10:49:36.834Z,23.46
2023-05-21T10:52:18.468Z,23.13
2023-05-21T10:55:12.596Z,23.54
2023-05-21T10:57:57.187Z,23.03
2023-05-21T11:00:25.827Z,22.77
2023-05-21T11:02:53.180Z,23.21
2023-05-21T11:05:56.132Z,23.24
2023-05-21T11:08:36.242Z,23.20
2023-05-21T11:11:03.920Z,22.31
2023-05-21T11:13:49.520Z,22.57
2023-05-21T11:16:17.118Z,22.92
2023-05-21T11:18:46.432Z,22.46
2023-05-21T11:21:18.099Z,22.63
2023-05-21T11:23:50.867Z,22.68
2023-05-21T11:26:18.022Z,22.65
2023-05-21T11:28:44.675Z,21.99
2023-05-21T11:31:25.828Z,22.32
2023-05-21T11:34:16.296Z,22.58
2023-05-21T11:36:47.763Z,22.64
2023-05-21T11:39:15.476Z,22.53
2023-05-21T11:42:04.714Z,22.30
2023-05-21T11:44:45.221Z,22.31
2023-05-21T11:47:15.075Z,22.75
2023-05-21T11:49:42.648Z,22.69
2023-05-21T11:52:11.122Z,22.73
2023-05-21T11:54:44.096Z,21.95
2023-05-21T11:57:11.102Z,22.52
2023-05-21T11:59:38.140Z,22.67
2023-05-21T12:02:05.341Z,22.73
2023-05-21T12:04:39.304Z,22.10
2023-05-21T12:07:09.602Z,21.63
2023-05-21T12:09:43.218Z,22.08
2023-05-21T12:12:11.428Z,22.02
2023-05-21T12:14:38.225Z,22.25
2023-05-21T12:17:05.896Z,22.21
2023-05-21T12:19:34.299Z,22.22
2023-05-21T12:22:05.495Z,21.83
2023-05-21T12:24:33.548Z,22.16
2023-05-21T12:27:02.235Z,21.30
2023-05-21T12:29:31.506Z,20.92
2023-05-21T12:32:03.248Z,21.21
2023-05-21T12:34:45.541Z,21.07
2023-05-21T12:37:16.274Z,21.10
2023-05-21T12:39:47.643Z,21.05
2023-05-21T12:42:14.746Z,21.38
2023-05-21T12:44:46.331Z,21.50
2023-05-21T12:47:14.057Z,21.63
2023-05-21T12:49:42.411Z,22.07
2023-05-21T12:52:13.258Z,22.06
2023-05-21T12:54:41.989Z,22.05
2023-05-21T12:57:19.605Z,22.28
2023-05-21T12:59:53.357Z,22.14
2023-05-21T13:02:25.212Z,21.99
2023-05-21T13:04:56.955Z,22.21
2023-05-21T13:07:24.902Z,22.34
2023-05-21T13:09:53.365Z,22.36
2023-05-21T13:12:30.769Z,21.90
2023-05-21T13:14:58.963Z,22.08
2023-05-21T13:17:27.693Z,22.22
2023-05-21T13:20:12.737Z,22.34
2023-05-21T13:22:48.343Z,22.52
2023-05-21T13:25:24.636Z,22.44
2023-05-21T13:27:52.850Z,22.63
2023-05-21T13:30:20.268Z,22.50
2023-05-21T13:32:48.022Z,22.73
2023-05-21T13:35:16.587Z,22.42
2023-05-21T13:37:43.624Z,22.67
2023-05-21T13:40:11.738Z,22.40
2023-05-21T13:42:38.885Z,22.42
2023-05-21T13:45:10.563Z,22.58
2023-05-21T13:47:40.259Z,22.53
2023-05-21T13:50:08.352Z,21.96
2023-05-21T13:52:35.123Z,21.55
2023-05-21T13:55:01.760Z,21.11
2023-05-21T13:57:30.801Z,21.98
2023-05-21T14:00:01.312Z,22.48
2023-05-21T14:02:28.393Z,22.57
2023-05-21T14:04:55.164Z,21.88
2023-05-21T14:07:22.313Z,21.62
2023-05-21T14:09:49.484Z,21.61
2023-05-21T14:12:17.020Z,21.61
2023-05-21T14:14:43.845Z,21.49
2023-05-21T14:17:10.517Z,22.08
2023-05-21T14:19:37.232Z,22.16
2023-05-21T14:22:03.943Z,21.57
2023-05-21T14:24:30.686Z,21.50
2023-05-21T14:26:57.405Z,21.47
2023-05-21T14:29:24.095Z,21.72
2023-05-21T14:31:50.832Z,22.26
2023-05-21T14:34:17.618Z,22.15
2023-05-21T14:36:44.277Z,21.86
2023-05-21T14:39:11.148Z,22.04
2023-05-21T14:41:39.829Z,21.83
2023-05-21T14:44:06.798Z,21.66
2023-05-21T14:46:33.668Z,22.17
2023-05-21T14:49:00.884Z,22.36
2023-05-21T14:51:27.640Z,22.20
2023-05-21T14:53:54.478Z,21.53
2023-05-21T14:56:22.110Z,22.09
2023-05-21T14:58:49.403Z,21.54
2023-05-21T15:01:16.353Z,21.65
2023-05-21T15:03:43.285Z,22.05
2023-05-21T15:06:10.076Z,21.89
2023-05-21T15:08:36.838Z,21.97
2023-05-21T15:11:03.531Z,22.27
2023-05-21T15:13:30.274Z,22.43
2023-05-21T15:15:57.183Z,22.29
2023-05-21T15:18:24.952Z,22.61
2023-05-21T15:20:51.900Z,22.39
2023-05-21T15:23:18.851Z,22.09
2023-05-21T15:25:46.076Z,21.75
2023-05-21T15:28:13.074Z,21.43
2023-05-21T15:30:40.207Z,22.10
2023-05-21T15:33:06.826Z,22.29
2023-05-21T15:35:35.389Z,22.34
2023-05-21T15:38:02.843Z,22.32
2023-05-21T15:40:29.583Z,22.45
2023-05-21T15:42:56.333Z,22.43
2023-05-21T15:45:24.833Z,22.28
2023-05-21T15:47:51.499Z,22.25
2023-05-21T15:50:18.315Z,22.26
2023-05-21T15:52:44.953Z,22.23
2023-05-21T15:55:11.648Z,22.42
2023-05-21T15:57:38.450Z,22.29
2023-05-21T16:00:06.378Z,22.27
2023-05-21T16:02:33.214Z,22.00
2023-05-21T16:04:59.890Z,21.87
2023-05-21T16:07:26.554Z,21.95
2023-05-21T16:09:53.239Z,22.02
2023-05-21T16:12:20.118Z,21.51
2023-05-21T16:14:50.157Z,21.31
2023-05-21T16:17:17.396Z,21.65
2023-05-21T16:19:44.020Z,21.86
2023-05-21T16:22:11.047Z,21.80
2023-05-21T16:24:37.992Z,21.61
2023-05-21T16:27:05.097Z,21.60
2023-05-21T16:29:31.958Z,21.85
2023-05-21T16:31:58.722Z,21.84
2023-05-21T16:34:25.750Z,21.91
2023-05-21T16:36:52.516Z,21.85
2023-05-21T16:39:19.241Z,22.01
2023-05-21T16:41:46.120Z,21.80
2023-05-21T16:44:12.896Z,21.51
2023-05-21T16:46:39.618Z,21.03
2023-05-21T16:49:06.426Z,21.57
2023-05-21T16:51:33.097Z,21.31
2023-05-21T16:53:59.835Z,21.44
2023-05-21T16:56:27.646Z,21.36
2023-05-21T16:58:54.419Z,21.53
2023-05-21T17:01:21.225Z,21.58
2023-05-21T17:03:47.981Z,21.37
2023-05-21T17:06:15.063Z,21.42
2023-05-21T17:08:42.754Z,21.56
2023-05-21T17:11:09.538Z,21.75
2023-05-21T17:13:36.338Z,21.66
2023-05-21T17:16:03.071Z,21.66
2023-05-21T17:18:30.037Z,21.47
2023-05-21T17:20:56.793Z,21.24
2023-05-21T17:23:23.667Z,21.12
2023-05-21T17:25:50.422Z,21.03
2023-05-21T17:28:17.184Z,21.16
2023-05-21T17:30:43.843Z,21.21
2023-05-21T17:33:10.819Z,21.06
2023-05-21T17:35:38.729Z,21.08
2023-05-21T17:38:05.979Z,21.05
2023-05-21T17:40:32.652Z,21.28
2023-05-21T17:42:59.339Z,20.83
2023-05-21T17:45:25.983Z,20.63
2023-05-21T17:47:52.819Z,20.76
2023-05-21T17:50:19.476Z,20.52
2023-05-21T17:52:46.274Z,20.79
2023-05-21T17:55:13.026Z,20.87
2023-05-21T17:57:39.699Z,20.94
2023-05-21T18:00:07.232Z,21.08
2023-05-21T18:02:33.957Z,20.74
2023-05-21T18:05:02.702Z,21.00
2023-05-21T18:07:29.329Z,20.83
2023-05-21T18:09:56.050Z,20.75
2023-05-21T18:12:22.687Z,20.69
2023-05-21T18:14:49.463Z,20.55
2023-05-21T18:17:16.074Z,20.68
2023-05-21T18:19:42.768Z,20.64
2023-05-21T18:22:09.507Z,20.57
2023-05-21T18:24:38.253Z,20.26
2023-05-21T18:27:05.287Z,20.42
2023-05-21T18:29:31.920Z,20.35
2023-05-21T18:31:58.740Z,20.56
2023-05-21T18:34:25.536Z,20.03
2023-05-21T18:36:54.582Z,20.19
2023-05-21T18:39:24.774Z,20.30
2023-05-21T18:41:58.646Z,20.33
2023-05-21T18:44:32.792Z,20.36
2023-05-21T18:46:59.517Z,20.27
2023-05-21T18:49:26.696Z,20.30
2023-05-21T18:51:53.625Z,20.26
2023-05-21T18:54:20.372Z,20.20
2023-05-21T18:56:47.044Z,19.47
2023-05-21T18:59:13.791Z,19.47
2023-05-21T19:01:40.627Z,19.10
2023-05-21T19:04:07.349Z,19.49
2023-05-21T19:06:34.045Z,18.68
2023-05-21T19:09:00.693Z,18.72
2023-05-21T19:11:31.107Z,18.92
2023-05-21T19:13:59.153Z,18.73
2023-05-21T19:16:25.955Z,18.92
2023-05-21T19:18:52.820Z,18.63
2023-05-21T19:21:19.706Z,18.55
2023-05-21T19:23:53.243Z,18.64
2023-05-21T19:26:22.691Z,19.08
2023-05-21T19:28:53.289Z,19.13
2023-05-21T19:31:22.431Z,19.62
2023-05-21T19:33:49.323Z,19.78
2023-05-21T19:36:16.147Z,19.59
2023-05-21T19:38:50.137Z,19.66
2023-05-21T19:41:17.931Z,19.70
2023-05-21T19:43:45.367Z,19.74
2023-05-21T19:46:12.075Z,19.80
2023-05-21T19:48:39.022Z,19.87
2023-05-21T19:51:05.913Z,19.73
2023-05-21T19:53:32.541Z,19.76
2023-05-21T19:55:59.267Z,19.72
2023-05-21T19:58:29.455Z,19.71
2023-05-21T20:00:58.420Z,19.72
2023-05-21T20:03:26.727Z,19.66
2023-05-21T20:05:53.764Z,19.49
2023-05-21T20:08:20.575Z,19.72
2023-05-21T20:10:49.618Z,19.06
2023-05-21T20:13:18.223Z,18.50
2023-05-21T20:15:44.977Z,18.56
2023-05-21T20:18:13.008Z,18.50
2023-05-21T20:20:41.137Z,18.39
2023-05-21T20:23:08.263Z,18.88
2023-05-21T20:25:34.903Z,18.94
2023-05-21T20:28:03.230Z,19.14
2023-05-21T20:30:34.429Z,18.99
2023-05-21T20:33:02.711Z,18.45
2023-05-21T20:35:30.152Z,18.89
2023-05-21T20:37:56.853Z,18.81
2023-05-21T20:40:23.641Z,18.70
2023-05-21T20:42:53.584Z,18.95
2023-05-21T20:45:21.204Z,19.04
2023-05-21T20:47:48.283Z,18.95
2023-05-21T20:50:17.687Z,19.06
2023-05-21T20:52:47.007Z,18.93
2023-05-21T20:55:14.775Z,19.02
2023-05-21T20:57:42.161Z,19.32
2023-05-21T21:00:11.965Z,19.24
2023-05-21T21:02:39.828Z,19.37
2023-05-21T21:05:10.629Z,19.28
2023-05-21T21:07:37.793Z,19.41
2023-05-21T21:10:05.254Z,19.41
2023-05-21T21:12:31.942Z,19.37
2023-05-21T21:14:58.677Z,19.29
2023-05-21T21:17:25.621Z,19.36
2023-05-21T21:19:52.407Z,19.33
2023-05-21T21:22:19.355Z,19.25
2023-05-21T21:24:46.042Z,19.22
2023-05-21T21:27:12.805Z,19.30
2023-05-21T21:29:39.839Z,19.18
2023-05-21T21:32:06.985Z,19.20
2023-05-21T21:34:33.767Z,19.25
2023-05-21T21:37:00.478Z,19.15
2023-05-21T21:39:27.229Z,19.08
2023-05-21T21:41:53.939Z,19.14
2023-05-21T21:44:20.685Z,19.01
2023-05-21T21:46:47.581Z,18.93
2023-05-21T21:49:17.266Z,18.92
2023-05-21T21:51:44.801Z,18.99
2023-05-21T21:54:11.970Z,19.04
2023-05-21T21:56:38.765Z,19.12
2023-05-21T21:59:05.726Z,18.88
2023-05-21T22:01:32.684Z,19.03
2023-05-21T22:03:59.826Z,19.02
2023-05-21T22:06:27.759Z,18.97
2023-05-21T22:08:54.976Z,19.03
2023-05-21T22:11:22.115Z,19.02
2023-05-21T22:13:49.139Z,19.11
2023-05-21T22:16:16.001Z,18.91
2023-05-21T22:18:42.725Z,18.82
2023-05-21T22:21:10.632Z,18.85
2023-05-21T22:23:38.612Z,18.81
2023-05-21T22:26:05.872Z,18.92
2023-05-21T22:28:32.768Z,18.94
2023-05-21T22:30:59.547Z,18.89
2023-05-21T22:33:26.815Z,19.00
2023-05-21T22:35:54.593Z,19.03
2023-05-21T22:38:21.585Z,18.86
2023-05-21T22:40:48.456Z,18.95
2023-05-21T22:43:15.208Z,18.82
2023-05-21T22:45:42.327Z,18.86
2023-05-21T22:48:09.823Z,18.89
2023-05-21T22:50:39.140Z,18.86
2023-05-21T22:53:06.953Z,18.91
2023-05-21T22:55:33.659Z,18.94
2023-05-21T22:58:00.577Z,18.97
2023-05-21T23:00:27.738Z,18.79
2023-05-21T23:02:54.903Z,18.67
2023-05-21T23:05:22.292Z,18.69
2023-05-21T23:07:49.162Z,18.76
2023-05-21T23:10:16.022Z,18.72
2023-05-21T23:12:42.762Z,18.73
2023-05-21T23:15:10.900Z,18.77
2023-05-21T23:17:38.496Z,18.63
2023-05-21T23:20:08.901Z,18.70
2023-05-21T23:22:35.774Z,18.46
2023-05-21T23:25:03.080Z,18.12
2023-05-21T23:27:29.816Z,18.09
2023-05-21T23:29:56.612Z,18.06
2023-05-21T23:32:23.799Z,18.31
2023-05-21T23:34:50.886Z,18.12
2023-05-21T23:37:17.894Z,18.19
2023-05-21T23:39:48.203Z,18.25
2023-05-21T23:42:16.181Z,17.83
2023-05-21T23:44:42.873Z,17.84
2023-05-21T23:47:09.942Z,17.98
2023-05-21T23:49:36.639Z,18.15
2023-05-21T23:52:03.568Z,17.50
2023-05-21T23:54:30.790Z,16.95
2023-05-21T23:56:57.530Z,17.08
2023-05-21T23:59:24.215Z,17.44
